Time;durP1;ratioP1;P1;durP2;ratioP2;P2;SDS_P1;SDS_P2;PMS_P1;PMS_P2;Temp;Humidity;BMP_temperature;BMP_pressure;BME280_temperature;BME280_humidity;BME280_pressure;Samples;Min_cycle;Max_cycle;Signal;HPM_P1;HPM_P2
2021/07/24 00:02:03;;;;;;;14.00;6.93;;;;;;;;;;5027646;28;20033;-59
2021/07/24 00:04:31;;;;;;;14.43;7.72;;;;;;;;;;5028726;28;20671;-59
2021/07/24 00:07:02;;;;;;;13.57;6.90;;;;;;;;;;5026323;28;20119;-58
2021/07/24 00:09:30;;;;;;;16.55;6.82;;;;;;;;;;5029900;28;20037;-59
2021/07/24 00:11:56;;;;;;;16.42;7.68;;;;;;;;;;5011361;28;20463;-59
2021/07/24 00:14:23;;;;;;;15.50;7.10;;;;;;;;;;5030526;28;20044;-59
2021/07/24 00:16:51;;;;;;;14.55;7.35;;;;;;;;;;5027747;28;20039;-58
2021/07/24 00:19:19;;;;;;;19.17;7.90;;;;;;;;;;5031166;28;20471;-58
2021/07/24 00:21:45;;;;;;;22.17;6.97;;;;;;;;;;5030287;28;20037;-58
2021/07/24 00:24:13;;;;;;;13.77;7.03;;;;;;;;;;5027379;28;20029;-58
2021/07/24 00:26:42;;;;;;;17.77;7.20;;;;;;;;;;5030836;28;20515;-59
2021/07/24 00:29:12;;;;;;;26.25;8.38;;;;;;;;;;5011602;28;20056;-57
2021/07/24 00:35:16;;;;;;;19.58;8.68;;;;;;;;;;5029175;28;20091;-59
2021/07/24 00:37:46;;;;;;;17.08;7.72;;;;;;;;;;5031529;28;20037;-59
2021/07/24 00:40:17;;;;;;;16.55;8.32;;;;;;;;;;5008763;28;20428;-59
2021/07/24 00:42:48;;;;;;;22.25;8.07;;;;;;;;;;5017443;28;21518;-59
2021/07/24 00:45:16;;;;;;;18.45;8.48;;;;;;;;;;5029140;28;20029;-59
2021/07/24 00:47:46;;;;;;;23.17;9.63;;;;;;;;;;5030225;28;20044;-58
2021/07/24 00:50:32;;;;;;;19.02;10.70;;;;;;;;;;5029388;28;20124;-58
2021/07/24 00:53:10;;;;;;;16.27;8.35;;;;;;;;;;5029993;28;20514;-59
2021/07/24 00:55:38;;;;;;;22.63;8.88;;;;;;;;;;5029379;28;20064;-59
2021/07/24 00:58:23;;;;;;;17.83;8.73;;;;;;;;;;5008547;28;20040;-58
2021/07/24 01:00:48;;;;;;;20.70;9.43;;;;;;;;;;5027138;28;20061;-58
2021/07/24 01:03:16;;;;;;;18.70;9.15;;;;;;;;;;5015408;28;20040;-58
2021/07/24 01:05:45;;;;;;;27.13;9.65;;;;;;;;;;5031197;28;20037;-59
2021/07/24 01:08:13;;;;;;;18.48;9.82;;;;;;;;;;5008681;28;20029;-59
2021/07/24 01:10:43;;;;;;;19.50;9.77;;;;;;;;;;5028880;28;20642;-59
2021/07/24 01:13:16;;;;;;;20.85;8.85;;;;;;;;;;5012266;28;20033;-58
2021/07/24 01:15:41;;;;;;;25.40;9.90;;;;;;;;;;5027822;28;20029;-59
2021/07/24 01:18:11;;;;;;;24.52;10.00;;;;;;;;;;5027135;28;20427;-59
2021/07/24 01:20:40;;;;;;;23.13;10.57;;;;;;;;;;5030408;28;20837;-59
2021/07/24 01:23:08;;;;;;;21.75;9.80;;;;;;;;;;5042411;28;20036;-59
2021/07/24 01:25:41;;;;;;;26.30;10.30;;;;;;;;;;5028455;28;20071;-59
2021/07/24 01:28:06;;;;;;;22.60;10.10;;;;;;;;;;5010788;28;20033;-58
2021/07/24 01:30:42;;;;;;;28.90;10.18;;;;;;;;;;5028396;28;20143;-58
2021/07/24 01:33:13;;;;;;;22.42;10.48;;;;;;;;;;5015020;28;20028;-59
2021/07/24 01:35:45;;;;;;;25.17;10.43;;;;;;;;;;5028559;28;20021;-58
2021/07/24 01:38:10;;;;;;;32.10;11.10;;;;;;;;;;5028474;28;20025;-59
2021/07/24 01:40:41;;;;;;;20.50;10.18;;;;;;;;;;5030578;28;20029;-59
2021/07/24 01:43:07;;;;;;;19.80;10.02;;;;;;;;;;5013122;28;20187;-58
2021/07/24 01:45:33;;;;;;;32.08;10.73;;;;;;;;;;5000755;28;20039;-58
2021/07/24 01:48:03;;;;;;;27.48;11.68;;;;;;;;;;5032826;28;20025;-58
2021/07/24 01:53:13;;;;;;;28.23;12.32;;;;;;;;;;5023392;28;20111;-59
2021/07/24 01:55:53;;;;;;;28.42;11.38;;;;;;;;;;5015977;28;20095;-56
2021/07/24 01:58:26;;;;;;;23.55;11.23;;;;;;;;;;5032552;28;20115;-58
2021/07/24 02:00:56;;;;;;;31.25;10.95;;;;;;;;;;5031714;28;20622;-58
2021/07/24 02:03:23;;;;;;;29.92;11.55;;;;;;;;;;5016758;28;20131;-58
2021/07/24 02:05:49;;;;;;;31.25;12.32;;;;;;;;;;5032558;28;20024;-58
2021/07/24 02:08:21;;;;;;;23.20;10.77;;;;;;;;;;5029017;28;20061;-59
2021/07/24 02:10:52;;;;;;;22.65;11.00;;;;;;;;;;5033912;28;20037;-59
2021/07/24 02:13:20;;;;;;;24.42;11.20;;;;;;;;;;5032645;28;20080;-59
2021/07/24 02:15:46;;;;;;;28.95;11.77;;;;;;;;;;5036636;28;20777;-59
2021/07/24 02:18:18;;;;;;;23.77;11.25;;;;;;;;;;5032634;28;20027;-58
2021/07/24 02:20:45;;;;;;;23.77;11.02;;;;;;;;;;5016058;28;20170;-58
2021/07/24 02:23:13;;;;;;;28.80;11.93;;;;;;;;;;5012580;28;20089;-60
2021/07/24 02:25:38;;;;;;;30.40;11.07;;;;;;;;;;5031785;28;20028;-58
2021/07/24 02:28:06;;;;;;;29.77;11.90;;;;;;;;;;5032511;28;20607;-58
2021/07/24 02:34:08;;;;;;;33.58;12.88;;;;;;;;;;5034297;28;20036;-57
2021/07/24 02:36:33;;;;;;;30.08;13.43;;;;;;;;;;5003587;28;20041;-58
2021/07/24 02:39:01;;;;;;;31.13;11.93;;;;;;;;;;5029835;28;20761;-67
2021/07/24 02:41:27;;;;;;;34.97;11.38;;;;;;;;;;5032295;28;20420;-59
2021/07/24 02:43:55;;;;;;;27.20;11.38;;;;;;;;;;5008238;28;20083;-58
2021/07/24 02:46:20;;;;;;;28.33;11.50;;;;;;;;;;5013189;28;20319;-66
2021/07/24 02:48:46;;;;;;;24.00;10.88;;;;;;;;;;5019743;28;20473;-58
2021/07/24 02:51:14;;;;;;;25.20;10.80;;;;;;;;;;5030835;28;20041;-58
2021/07/24 02:53:45;;;;;;;25.90;10.00;;;;;;;;;;5037804;28;20040;-58
2021/07/24 02:56:13;;;;;;;26.80;10.48;;;;;;;;;;5036795;28;20044;-59
2021/07/24 02:58:41;;;;;;;30.77;11.77;;;;;;;;;;5029199;28;20025;-58
2021/07/24 03:01:12;;;;;;;28.38;10.48;;;;;;;;;;5030960;28;20033;-59
2021/07/24 03:03:39;;;;;;;23.83;11.23;;;;;;;;;;5029130;28;20028;-58
2021/07/24 03:06:12;;;;;;;23.85;10.52;;;;;;;;;;5029910;28;20029;-57
2021/07/24 03:08:38;;;;;;;27.90;10.13;;;;;;;;;;5032962;28;20033;-60
2021/07/24 03:11:08;;;;;;;29.20;10.55;;;;;;;;;;5001518;28;20403;-58
2021/07/24 03:13:36;;;;;;;24.73;10.52;;;;;;;;;;5031407;28;20033;-57
2021/07/24 03:16:10;;;;;;;31.83;10.50;;;;;;;;;;5030516;28;20056;-58
2021/07/24 03:18:38;;;;;;;31.50;10.05;;;;;;;;;;5029345;28;20035;-58
2021/07/24 03:21:03;;;;;;;20.70;9.88;;;;;;;;;;5030635;28;20079;-59
2021/07/24 03:23:28;;;;;;;34.28;10.70;;;;;;;;;;5029816;28;20883;-58
2021/07/24 03:26:01;;;;;;;29.63;11.38;;;;;;;;;;5029120;28;20095;-57
2021/07/24 03:28:31;;;;;;;28.40;10.13;;;;;;;;;;5029541;28;20119;-57
2021/07/24 03:30:59;;;;;;;26.15;10.40;;;;;;;;;;5020542;28;20040;-58
2021/07/24 03:33:29;;;;;;;36.05;10.82;;;;;;;;;;5031179;28;20123;-58
2021/07/24 03:36:01;;;;;;;26.02;10.05;;;;;;;;;;5016634;28;20029;-58
2021/07/24 03:38:27;;;;;;;22.85;9.90;;;;;;;;;;5032334;28;22282;-58
2021/07/24 03:40:58;;;;;;;31.20;10.50;;;;;;;;;;5032893;28;20108;-58
2021/07/24 03:43:26;;;;;;;27.25;10.52;;;;;;;;;;5028027;28;20045;-57
2021/07/24 03:45:54;;;;;;;25.40;10.27;;;;;;;;;;5028395;28;20056;-60
2021/07/24 03:48:26;;;;;;;28.25;9.13;;;;;;;;;;5029858;28;20167;-58
2021/07/24 03:50:55;;;;;;;30.52;11.20;;;;;;;;;;5031657;28;20140;-58
2021/07/24 03:53:26;;;;;;;27.75;10.40;;;;;;;;;;5012812;28;20056;-59
2021/07/24 03:55:52;;;;;;;26.30;10.00;;;;;;;;;;5000715;28;20032;-57
2021/07/24 03:58:20;;;;;;;23.20;8.80;;;;;;;;;;4988529;28;20051;-58
2021/07/24 04:00:49;;;;;;;25.40;9.65;;;;;;;;;;4992429;28;20033;-58
2021/07/24 04:03:14;;;;;;;26.73;9.80;;;;;;;;;;5011197;28;20041;-59
2021/07/24 04:05:43;;;;;;;21.45;9.00;;;;;;;;;;5016545;28;20056;-58
2021/07/24 04:08:09;;;;;;;23.63;9.90;;;;;;;;;;5026650;28;20040;-58
2021/07/24 04:10:40;;;;;;;21.00;8.80;;;;;;;;;;5029817;28;20024;-58
2021/07/24 04:13:05;;;;;;;21.80;9.00;;;;;;;;;;5030103;28;20025;-57
2021/07/24 04:15:33;;;;;;;29.95;10.38;;;;;;;;;;5026212;28;20260;-59
2021/07/24 04:18:02;;;;;;;19.83;9.60;;;;;;;;;;5029556;28;20041;-58
2021/07/24 04:20:34;;;;;;;30.40;10.48;;;;;;;;;;5013769;28;20041;-59
2021/07/24 04:23:02;;;;;;;19.80;8.80;;;;;;;;;;5028539;28;20032;-58
2021/07/24 04:25:30;;;;;;;20.52;8.73;;;;;;;;;;5026085;28;20037;-58
2021/07/24 04:31:30;;;;;;;28.45;8.70;;;;;;;;;;5031245;28;21068;-58
2021/07/24 04:34:20;;;;;;;21.27;9.27;;;;;;;;;;5009830;28;20040;-59
2021/07/24 04:36:45;;;;;;;20.65;9.43;;;;;;;;;;5030211;28;20063;-59
2021/07/24 04:39:13;;;;;;;16.85;8.30;;;;;;;;;;5012823;28;20152;-59
2021/07/24 04:41:38;;;;;;;19.00;8.75;;;;;;;;;;5028291;28;20040;-59
2021/07/24 04:44:04;;;;;;;30.13;8.85;;;;;;;;;;5012004;28;20116;-58
2021/07/24 04:46:34;;;;;;;20.30;8.27;;;;;;;;;;5032085;28;20487;-57
2021/07/24 04:49:18;;;;;;;18.58;8.68;;;;;;;;;;5028832;28;20021;-59
2021/07/24 04:51:46;;;;;;;16.42;8.15;;;;;;;;;;5016960;28;20048;-59
2021/07/24 04:54:14;;;;;;;18.25;8.30;;;;;;;;;;5019729;28;20029;-58
2021/07/24 04:56:40;;;;;;;22.73;7.50;;;;;;;;;;5028041;28;20041;-59
2021/07/24 05:02:45;;;;;;;12.38;6.30;;;;;;;;;;5029594;28;20036;-57
2021/07/24 05:05:15;;;;;;;11.45;6.07;;;;;;;;;;5029162;28;20043;-57
2021/07/24 05:07:41;;;;;;;15.00;6.53;;;;;;;;;;5027502;28;20772;-58
2021/07/24 05:10:08;;;;;;;12.95;6.65;;;;;;;;;;5009556;28;20175;-58
2021/07/24 05:12:35;;;;;;;16.67;7.88;;;;;;;;;;5008613;28;20037;-59
2021/07/24 05:15:01;;;;;;;14.57;6.53;;;;;;;;;;5025224;28;20054;-57
2021/07/24 05:17:49;;;;;;;15.48;5.93;;;;;;;;;;5028275;28;20044;-58
2021/07/24 05:20:18;;;;;;;10.38;5.72;;;;;;;;;;5025280;28;20028;-56
2021/07/24 05:22:49;;;;;;;14.52;5.93;;;;;;;;;;5005582;28;20039;-58
2021/07/24 05:25:41;;;;;;;9.00;5.55;;;;;;;;;;5024312;28;20036;-58
2021/07/24 05:28:27;;;;;;;9.70;5.40;;;;;;;;;;5008056;28;20587;-59
2021/07/24 05:30:55;;;;;;;9.82;5.10;;;;;;;;;;5006711;28;20106;-59
2021/07/24 05:33:22;;;;;;;7.57;5.22;;;;;;;;;;5021670;28;20564;-59
2021/07/24 05:35:50;;;;;;;10.07;5.57;;;;;;;;;;5009921;28;22101;-58
2021/07/24 05:38:16;;;;;;;11.38;5.90;;;;;;;;;;5013292;28;20032;-59
2021/07/24 05:40:43;;;;;;;9.55;5.07;;;;;;;;;;5025578;28;20071;-59
2021/07/24 05:43:18;;;;;;;11.32;5.63;;;;;;;;;;5024962;28;20155;-58
2021/07/24 05:45:46;;;;;;;12.93;5.15;;;;;;;;;;5026749;28;20036;-60
2021/07/24 05:48:14;;;;;;;8.65;5.20;;;;;;;;;;5007177;28;20106;-59
2021/07/24 05:50:39;;;;;;;10.65;5.20;;;;;;;;;;5025383;28;20025;-58
2021/07/24 05:53:10;;;;;;;7.70;5.03;;;;;;;;;;5024473;28;20053;-58
2021/07/24 05:55:37;;;;;;;12.68;5.22;;;;;;;;;;5026669;28;20040;-59
2021/07/24 05:58:03;;;;;;;9.25;4.80;;;;;;;;;;5025197;28;20033;-60
2021/07/24 06:00:32;;;;;;;11.68;5.80;;;;;;;;;;5022678;28;20416;-57
2021/07/24 06:03:08;;;;;;;11.38;4.68;;;;;;;;;;5007028;28;20095;-58
2021/07/24 06:05:38;;;;;;;6.80;4.38;;;;;;;;;;5010369;28;20144;-58
2021/07/24 06:08:06;;;;;;;7.22;4.70;;;;;;;;;;5029410;28;20056;-59
2021/07/24 06:10:35;;;;;;;8.63;4.30;;;;;;;;;;5014658;28;20036;-59
2021/07/24 06:13:03;;;;;;;7.03;4.15;;;;;;;;;;5003730;28;20032;-60
2021/07/24 06:15:30;;;;;;;7.60;4.55;;;;;;;;;;5022487;28;20584;-59
2021/07/24 06:17:58;;;;;;;6.05;4.03;;;;;;;;;;5024887;28;21148;-57
2021/07/24 06:20:23;;;;;;;7.00;3.88;;;;;;;;;;5025639;28;20028;-59
2021/07/24 06:22:53;;;;;;;6.88;4.47;;;;;;;;;;5027435;28;20067;-57
2021/07/24 06:25:22;;;;;;;7.70;4.25;;;;;;;;;;5024646;28;21020;-59
2021/07/24 06:27:48;;;;;;;7.40;4.05;;;;;;;;;;5026139;28;20048;-59
2021/07/24 06:30:15;;;;;;;5.78;3.72;;;;;;;;;;4983083;28;20033;-59
2021/07/24 06:32:44;;;;;;;6.65;4.00;;;;;;;;;;5010038;28;20033;-60
2021/07/24 06:35:12;;;;;;;7.15;3.75;;;;;;;;;;5014231;28;20048;-59
2021/07/24 06:37:42;;;;;;;9.00;3.83;;;;;;;;;;5030671;28;20033;-59
2021/07/24 06:40:10;;;;;;;7.57;3.80;;;;;;;;;;5029051;28;20037;-61
2021/07/24 06:42:36;;;;;;;6.22;3.88;;;;;;;;;;5028694;28;20053;-58
2021/07/24 06:45:04;;;;;;;6.45;4.00;;;;;;;;;;5028052;28;20041;-61
2021/07/24 06:47:32;;;;;;;6.63;3.70;;;;;;;;;;5031172;28;20033;-60
2021/07/24 06:50:00;;;;;;;5.50;3.33;;;;;;;;;;5002320;28;20040;-58
2021/07/24 06:52:28;;;;;;;6.68;3.70;;;;;;;;;;5031650;28;20123;-58
2021/07/24 06:54:57;;;;;;;10.20;3.90;;;;;;;;;;5027777;28;20075;-60
2021/07/24 06:57:25;;;;;;;6.72;3.97;;;;;;;;;;5013210;28;20159;-59
2021/07/24 06:59:53;;;;;;;7.57;3.90;;;;;;;;;;5027827;28;20048;-59
2021/07/24 07:02:19;;;;;;;5.90;3.85;;;;;;;;;;5025992;28;20682;-60
2021/07/24 07:04:44;;;;;;;7.72;4.28;;;;;;;;;;5010427;28;20040;-60
2021/07/24 07:07:14;;;;;;;6.65;4.10;;;;;;;;;;5029259;28;20098;-59
2021/07/24 07:09:40;;;;;;;7.05;4.18;;;;;;;;;;5012580;28;20119;-59
2021/07/24 07:12:07;;;;;;;9.23;3.78;;;;;;;;;;5029360;28;20029;-60
2021/07/24 07:14:33;;;;;;;5.90;3.67;;;;;;;;;;5013017;28;20111;-60
2021/07/24 07:16:58;;;;;;;9.30;4.40;;;;;;;;;;5009533;28;20124;-60
2021/07/24 07:19:24;;;;;;;6.35;4.18;;;;;;;;;;5029372;28;20714;-59
2021/07/24 07:21:52;;;;;;;6.10;3.40;;;;;;;;;;5028550;28;20028;-59
2021/07/24 07:24:18;;;;;;;5.70;3.78;;;;;;;;;;4993463;28;20044;-58
2021/07/24 07:26:46;;;;;;;8.82;4.28;;;;;;;;;;5028981;28;20033;-57
2021/07/24 07:29:11;;;;;;;8.20;3.70;;;;;;;;;;5025509;28;20033;-59
2021/07/24 07:31:39;;;;;;;8.60;3.92;;;;;;;;;;5010166;28;20033;-59
2021/07/24 07:34:05;;;;;;;4.82;3.70;;;;;;;;;;5000105;28;20055;-59
2021/07/24 07:36:34;;;;;;;4.78;3.60;;;;;;;;;;5027397;28;20434;-59
2021/07/24 07:38:59;;;;;;;7.07;3.47;;;;;;;;;;5026041;28;20029;-58
2021/07/24 07:41:27;;;;;;;6.25;3.03;;;;;;;;;;5025478;28;20086;-60
2021/07/24 07:44:00;;;;;;;4.47;3.78;;;;;;;;;;5027460;28;20161;-59
2021/07/24 07:46:26;;;;;;;6.90;3.72;;;;;;;;;;5029106;28;20037;-60
2021/07/24 07:48:51;;;;;;;6.88;3.92;;;;;;;;;;5027150;28;20993;-59
2021/07/24 07:51:39;;;;;;;5.10;3.17;;;;;;;;;;5022854;28;20031;-57
2021/07/24 07:54:19;;;;;;;8.00;4.10;;;;;;;;;;4973633;28;20073;-57
2021/07/24 07:56:48;;;;;;;7.82;4.00;;;;;;;;;;4975956;28;20045;-59
2021/07/24 07:59:18;;;;;;;7.68;3.03;;;;;;;;;;4947003;28;20045;-59
2021/07/24 08:01:47;;;;;;;6.35;2.95;;;;;;;;;;4974320;28;20030;-58
2021/07/24 08:04:18;;;;;;;4.45;3.40;;;;;;;;;;4975071;28;20465;-58
2021/07/24 08:06:47;;;;;;;;;;;;;;;;;;4990294;28;20026;-59
2021/07/24 08:09:15;;;;;;;7.75;3.53;;;;;;;;;;4989500;28;19924;-60
2021/07/24 08:11:41;;;;;;;4.78;2.95;;;;;;;;;;4956691;28;21295;-59
2021/07/24 08:14:14;;;;;;;4.38;3.08;;;;;;;;;;4974419;28;20074;-59
2021/07/24 08:16:46;;;;;;;4.20;2.95;;;;;;;;;;4975135;28;20077;-59
2021/07/24 08:19:15;;;;;;;6.45;4.38;;;;;;;;;;4975358;28;20038;-58
2021/07/24 08:21:45;;;;;;;7.45;3.50;;;;;;;;;;4975748;28;20172;-60
2021/07/24 08:24:11;;;;;;;22.67;4.40;;;;;;;;;;4973385;28;20034;-59
2021/07/24 08:26:47;;;;;;;9.20;3.58;;;;;;;;;;4964109;28;20037;-60
2021/07/24 08:29:18;;;;;;;7.38;3.90;;;;;;;;;;4972825;28;20042;-59
2021/07/24 08:31:45;;;;;;;7.43;4.32;;;;;;;;;;4972620;28;20065;-59
2021/07/24 08:34:12;;;;;;;6.07;3.55;;;;;;;;;;4957377;28;21967;-58
2021/07/24 08:36:45;;;;;;;4.53;3.20;;;;;;;;;;4973014;28;20033;-58
2021/07/24 08:39:15;;;;;;;22.73;4.55;;;;;;;;;;4975205;28;20461;-59
2021/07/24 08:41:47;;;;;;;5.13;3.65;;;;;;;;;;4973996;28;20026;-58
2021/07/24 08:44:34;;;;;;;9.53;3.43;;;;;;;;;;4971683;28;20488;-59
2021/07/24 08:47:26;;;;;;;5.10;3.50;;;;;;;;;;4965357;28;20377;-59
2021/07/24 08:49:53;;;;;;;10.63;3.60;;;;;;;;;;4969823;28;20494;-58
2021/07/24 08:52:27;;;;;;;4.57;3.17;;;;;;;;;;5007446;28;20152;-60
2021/07/24 08:54:53;;;;;;;5.85;3.35;;;;;;;;;;5023461;28;20048;-57
2021/07/24 08:57:20;;;;;;;3.92;3.38;;;;;;;;;;5021094;28;20057;-57
2021/07/24 08:59:46;;;;;;;4.43;2.70;;;;;;;;;;5014419;28;20029;-58
2021/07/24 09:02:28;;;;;;;6.53;3.05;;;;;;;;;;5025375;28;20065;-59
2021/07/24 09:04:57;;;;;;;4.22;2.83;;;;;;;;;;5027174;28;20033;-57
2021/07/24 09:07:29;;;;;;;5.53;3.03;;;;;;;;;;5024525;28;20044;-58
2021/07/24 09:09:58;;;;;;;6.75;2.83;;;;;;;;;;5027049;28;20760;-59
2021/07/24 09:12:26;;;;;;;6.70;3.72;;;;;;;;;;5026635;28;20037;-58
2021/07/24 09:14:55;;;;;;;6.22;3.17;;;;;;;;;;5026741;28;20109;-59
2021/07/24 09:20:58;;;;;;;2.97;2.67;;;;;;;;;;5028226;28;20075;-59
2021/07/24 09:23:33;;;;;;;4.75;2.70;;;;;;;;;;5030639;28;20033;-60
2021/07/24 09:26:00;;;;;;;3.97;2.70;;;;;;;;;;4999665;28;20047;-60
2021/07/24 09:28:31;;;;;;;5.05;3.53;;;;;;;;;;5028150;28;20116;-60
2021/07/24 09:30:56;;;;;;;4.75;3.00;;;;;;;;;;4998084;28;20128;-60
2021/07/24 09:33:24;;;;;;;3.60;3.08;;;;;;;;;;5027796;28;20130;-59
2021/07/24 09:35:51;;;;;;;7.20;3.58;;;;;;;;;;5029248;28;20028;-59
2021/07/24 09:38:30;;;;;;;4.07;3.15;;;;;;;;;;5028945;28;20456;-61
2021/07/24 09:40:58;;;;;;;5.25;3.65;;;;;;;;;;5028076;28;20033;-60
2021/07/24 09:43:31;;;;;;;5.10;3.00;;;;;;;;;;5025726;28;20152;-59
2021/07/24 09:46:17;;;;;;;27.63;4.70;;;;;;;;;;5023400;28;20069;-60
2021/07/24 09:48:53;;;;;;;7.72;3.20;;;;;;;;;;5026166;28;20048;-57
2021/07/24 09:51:33;;;;;;;5.90;3.60;;;;;;;;;;5025135;28;20109;-59
2021/07/24 09:53:59;;;;;;;7.28;3.55;;;;;;;;;;5026137;28;20148;-58
2021/07/24 09:56:51;;;;;;;9.40;3.60;;;;;;;;;;5024891;28;20090;-58
2021/07/24 09:59:25;;;;;;;3.50;2.85;;;;;;;;;;5022792;28;20057;-60
2021/07/24 10:02:02;;;;;;;7.70;3.38;;;;;;;;;;5025618;28;20030;-59
2021/07/24 10:04:31;;;;;;;7.15;3.17;;;;;;;;;;5021569;28;20036;-60
2021/07/24 10:07:03;;;;;;;5.78;3.08;;;;;;;;;;5027586;28;20827;-58
2021/07/24 10:09:39;;;;;;;7.78;2.90;;;;;;;;;;5029251;28;20041;-60
2021/07/24 10:12:09;;;;;;;5.22;3.20;;;;;;;;;;5031231;28;20040;-59
2021/07/24 10:14:39;;;;;;;8.45;2.92;;;;;;;;;;5030489;28;20029;-58
2021/07/24 10:17:05;;;;;;;6.70;3.53;;;;;;;;;;5009720;28;21936;-58
2021/07/24 10:19:33;;;;;;;11.10;2.75;;;;;;;;;;5029531;28;20036;-58
2021/07/24 10:21:59;;;;;;;7.95;3.55;;;;;;;;;;4997671;28;20094;-58
2021/07/24 10:24:25;;;;;;;5.28;3.40;;;;;;;;;;5030620;28;20075;-58
2021/07/24 10:27:18;;;;;;;3.85;3.10;;;;;;;;;;5025198;28;20033;-58
2021/07/24 10:29:51;;;;;;;5.55;2.90;;;;;;;;;;5008306;28;20044;-58
2021/07/24 10:32:25;;;;;;;4.97;3.05;;;;;;;;;;5029665;28;20024;-58
2021/07/24 10:34:52;;;;;;;9.68;3.30;;;;;;;;;;5012023;28;20037;-58
2021/07/24 10:37:42;;;;;;;5.22;2.78;;;;;;;;;;5028440;28;20032;-58
2021/07/24 10:40:27;;;;;;;5.80;3.28;;;;;;;;;;5031057;28;20042;-58
2021/07/24 10:42:54;;;;;;;5.68;3.33;;;;;;;;;;5027256;28;20040;-58
2021/07/24 10:45:31;;;;;;;3.92;3.17;;;;;;;;;;5028584;28;20036;-59
2021/07/24 10:51:16;;;;;;;4.75;3.42;;;;;;;;;;5029101;28;20179;-59
2021/07/24 10:54:02;;;;;;;4.68;3.50;;;;;;;;;;5031159;28;20077;-57
2021/07/24 10:56:36;;;;;;;5.07;3.15;;;;;;;;;;5030304;28;20029;-57
2021/07/24 10:59:13;;;;;;;7.75;3.80;;;;;;;;;;5030206;28;20029;-57
2021/07/24 11:01:45;;;;;;;5.43;3.60;;;;;;;;;;5026237;28;20174;-60
2021/07/24 11:04:29;;;;;;;7.43;4.13;;;;;;;;;;5027593;28;20037;-58
2021/07/24 11:07:14;;;;;;;5.93;3.63;;;;;;;;;;5024125;28;20135;-60
2021/07/24 11:09:45;;;;;;;7.57;3.97;;;;;;;;;;5023760;28;20048;-59
2021/07/24 11:12:14;;;;;;;10.13;4.22;;;;;;;;;;5021771;28;20053;-60
2021/07/24 11:14:42;;;;;;;5.63;3.78;;;;;;;;;;5011326;28;20792;-59
2021/07/24 11:17:17;;;;;;;5.53;3.67;;;;;;;;;;4999153;28;20040;-59
2021/07/24 11:19:53;;;;;;;8.57;3.95;;;;;;;;;;5021152;28;20060;-57
2021/07/24 11:22:19;;;;;;;6.60;3.40;;;;;;;;;;4998303;28;20480;-58
2021/07/24 11:25:04;;;;;;;3.77;2.87;;;;;;;;;;5024487;28;20122;-57
2021/07/24 11:27:30;;;;;;;7.78;3.72;;;;;;;;;;5032939;28;20306;-59
2021/07/24 11:30:05;;;;;;;5.50;3.22;;;;;;;;;;5027148;28;20024;-60
2021/07/24 11:32:36;;;;;;;4.65;3.20;;;;;;;;;;5028385;28;20045;-58
2021/07/24 11:35:05;;;;;;;5.00;2.65;;;;;;;;;;5029265;28;20033;-59
2021/07/24 11:37:36;;;;;;;6.45;3.40;;;;;;;;;;5027960;28;20223;-58
2021/07/24 11:40:06;;;;;;;4.93;3.60;;;;;;;;;;5016385;28;20060;-56
2021/07/24 11:42:32;;;;;;;5.40;3.85;;;;;;;;;;5028245;28;20045;-58
2021/07/24 11:45:00;;;;;;;5.13;3.97;;;;;;;;;;5027690;28;20154;-59
2021/07/24 11:47:27;;;;;;;4.32;3.15;;;;;;;;;;5029165;28;20047;-60
2021/07/24 11:50:14;;;;;;;7.18;3.33;;;;;;;;;;5028228;28;20048;-59
2021/07/24 11:52:41;;;;;;;6.97;3.63;;;;;;;;;;5030997;28;20688;-58
2021/07/24 11:55:11;;;;;;;4.88;3.58;;;;;;;;;;5029275;28;20040;-60
2021/07/24 11:57:42;;;;;;;4.80;3.42;;;;;;;;;;5009410;28;20037;-58
2021/07/24 12:00:10;;;;;;;4.15;3.55;;;;;;;;;;5027925;28;21250;-60
2021/07/24 12:02:36;;;;;;;6.88;3.47;;;;;;;;;;4995354;28;20114;-59
2021/07/24 12:05:41;;;;;;;4.55;3.30;;;;;;;;;;5028068;28;20481;-61
2021/07/24 12:08:09;;;;;;;4.80;3.03;;;;;;;;;;5028344;28;20424;-58
2021/07/24 12:10:38;;;;;;;4.82;2.75;;;;;;;;;;5031573;28;21884;-60
2021/07/24 12:13:06;;;;;;;4.32;2.63;;;;;;;;;;5027407;28;21048;-61
2021/07/24 12:18:44;;;;;;;3.88;3.08;;;;;;;;;;5028607;28;20028;-60
2021/07/24 12:21:20;;;;;;;16.27;4.00;;;;;;;;;;5010529;28;20564;-60
2021/07/24 12:23:52;;;;;;;7.55;3.17;;;;;;;;;;5012595;28;20037;-59
2021/07/24 12:26:20;;;;;;;4.32;3.20;;;;;;;;;;5028762;28;20052;-60
2021/07/24 12:28:55;;;;;;;3.97;2.50;;;;;;;;;;5014748;28;20441;-59
2021/07/24 12:31:28;;;;;;;4.95;3.17;;;;;;;;;;5011718;28;20037;-60
2021/07/24 12:33:56;;;;;;;4.78;3.17;;;;;;;;;;5028454;28;20610;-60
2021/07/24 12:42:38;;;;;;;4.68;3.25;;;;;;;;;;5030111;28;20464;-59
2021/07/24 12:45:06;;;;;;;3.55;3.03;;;;;;;;;;5026906;28;20064;-61
2021/07/24 12:47:35;;;;;;;4.07;3.17;;;;;;;;;;5025333;28;20166;-61
2021/07/24 12:50:11;;;;;;;7.38;3.00;;;;;;;;;;5024871;28;21016;-57
2021/07/24 12:52:43;;;;;;;7.82;2.88;;;;;;;;;;5026137;28;20132;-61
2021/07/24 12:58:59;;;;;;;4.10;2.80;;;;;;;;;;5026426;28;20035;-60
2021/07/24 13:01:29;;;;;;;8.30;3.20;;;;;;;;;;5028207;28;20809;-59
2021/07/24 13:03:54;;;;;;;6.63;2.88;;;;;;;;;;4994319;28;20198;-60
2021/07/24 13:06:20;;;;;;;5.82;2.92;;;;;;;;;;5024867;28;21913;-59
2021/07/24 13:08:46;;;;;;;4.68;3.17;;;;;;;;;;5026317;28;20395;-60
2021/07/24 13:11:14;;;;;;;7.38;3.60;;;;;;;;;;5018336;28;20029;-59
2021/07/24 13:13:50;;;;;;;4.68;2.88;;;;;;;;;;5000800;28;20033;-58
2021/07/24 13:16:17;;;;;;;5.60;3.20;;;;;;;;;;5023229;28;20037;-60
2021/07/24 13:18:46;;;;;;;5.50;3.60;;;;;;;;;;5013730;28;22019;-58
2021/07/24 13:21:16;;;;;;;5.85;2.88;;;;;;;;;;5000012;28;20116;-59
2021/07/24 13:23:46;;;;;;;6.03;3.00;;;;;;;;;;5012402;28;20037;-60
2021/07/24 13:29:04;;;;;;;9.35;2.90;;;;;;;;;;5013661;28;20041;-58
2021/07/24 13:31:30;;;;;;;17.92;3.88;;;;;;;;;;5020448;28;20040;-60
2021/07/24 13:34:00;;;;;;;5.38;2.88;;;;;;;;;;5015519;28;20046;-59
2021/07/24 13:36:28;;;;;;;10.48;3.30;;;;;;;;;;5026787;28;20033;-60
2021/07/24 13:38:54;;;;;;;28.92;12.05;;;;;;;;;;5023587;28;20029;-59
2021/07/24 13:41:22;;;;;;;41.38;21.30;;;;;;;;;;5002572;28;20029;-59
2021/07/24 13:43:51;;;;;;;24.25;11.23;;;;;;;;;;5023086;28;20020;-58
2021/07/24 13:46:20;;;;;;;12.70;6.28;;;;;;;;;;4980983;28;20067;-59
2021/07/24 13:48:50;;;;;;;11.98;6.30;;;;;;;;;;5018702;28;20894;-58
2021/07/24 13:51:23;;;;;;;5.75;3.50;;;;;;;;;;5016681;28;20131;-59
2021/07/24 13:53:50;;;;;;;6.45;3.30;;;;;;;;;;5026841;28;20135;-59
2021/07/24 13:56:17;;;;;;;7.13;2.88;;;;;;;;;;5015261;28;20103;-59
2021/07/24 13:58:47;;;;;;;4.28;2.88;;;;;;;;;;5029683;28;20033;-59
2021/07/24 14:01:15;;;;;;;35.42;5.80;;;;;;;;;;5031136;28;20028;-60
2021/07/24 14:03:41;;;;;;;8.50;3.58;;;;;;;;;;5012796;28;20621;-60
2021/07/24 14:06:09;;;;;;;7.90;3.78;;;;;;;;;;5012992;28;20027;-58
2021/07/24 14:08:36;;;;;;;5.75;4.30;;;;;;;;;;5030264;28;20041;-59
2021/07/24 14:11:14;;;;;;;5.65;3.75;;;;;;;;;;5033041;28;20056;-60
2021/07/24 14:13:41;;;;;;;6.25;3.50;;;;;;;;;;5032771;28;20575;-59
2021/07/24 14:16:11;;;;;;;5.65;3.58;;;;;;;;;;5028472;28;20056;-59
2021/07/24 14:18:39;;;;;;;4.10;3.38;;;;;;;;;;5029110;28;20404;-59
2021/07/24 14:21:05;;;;;;;7.57;3.75;;;;;;;;;;4999540;28;20028;-58
2021/07/24 14:23:32;;;;;;;8.07;3.50;;;;;;;;;;5033603;28;21611;-59
2021/07/24 14:26:02;;;;;;;6.93;3.53;;;;;;;;;;5003010;28;20723;-58
2021/07/24 14:28:28;;;;;;;6.80;4.45;;;;;;;;;;5012963;28;20045;-59
2021/07/24 14:30:54;;;;;;;6.30;4.47;;;;;;;;;;5032015;28;20119;-59
2021/07/24 14:33:20;;;;;;;9.40;5.70;;;;;;;;;;5012366;28;20041;-58
2021/07/24 14:35:50;;;;;;;7.22;4.30;;;;;;;;;;5031121;28;21075;-60
2021/07/24 14:38:21;;;;;;;9.75;3.63;;;;;;;;;;5032435;28;20041;-57
2021/07/24 14:40:54;;;;;;;8.68;4.03;;;;;;;;;;5029164;28;20021;-58
2021/07/24 14:43:20;;;;;;;8.68;4.25;;;;;;;;;;5028849;28;20033;-59
2021/07/24 14:45:45;;;;;;;8.20;4.18;;;;;;;;;;5010614;28;20039;-59
2021/07/24 14:48:14;;;;;;;9.20;5.38;;;;;;;;;;5030712;28;20447;-58
2021/07/24 14:50:43;;;;;;;8.60;5.18;;;;;;;;;;5032076;28;20460;-59
2021/07/24 14:53:13;;;;;;;8.10;5.35;;;;;;;;;;5029320;28;20044;-61
2021/07/24 14:55:42;;;;;;;9.13;5.00;;;;;;;;;;5031026;28;20119;-59
2021/07/24 14:58:10;;;;;;;7.70;4.60;;;;;;;;;;5030180;28;20029;-60
2021/07/24 15:00:37;;;;;;;8.43;4.55;;;;;;;;;;5012804;28;20036;-60
2021/07/24 15:03:05;;;;;;;10.27;5.97;;;;;;;;;;5019109;28;20108;-59
2021/07/24 15:05:30;;;;;;;11.70;6.18;;;;;;;;;;5028482;28;20059;-59
2021/07/24 15:08:00;;;;;;;9.85;6.22;;;;;;;;;;5014746;28;20048;-60
2021/07/24 15:10:31;;;;;;;18.23;10.55;;;;;;;;;;5027609;28;20123;-59
2021/07/24 15:13:01;;;;;;;17.38;10.48;;;;;;;;;;5030922;28;20047;-59
2021/07/24 15:15:26;;;;;;;27.52;15.30;;;;;;;;;;5030848;28;20654;-58
2021/07/24 15:17:54;;;;;;;11.10;8.10;;;;;;;;;;5027443;28;20070;-58
2021/07/24 15:20:25;;;;;;;10.68;7.15;;;;;;;;;;5031138;28;20056;-58
2021/07/24 15:22:51;;;;;;;15.13;7.00;;;;;;;;;;5008594;28;20044;-59
2021/07/24 15:25:16;;;;;;;8.68;4.93;;;;;;;;;;5013438;28;20033;-59
2021/07/24 15:27:42;;;;;;;9.65;4.35;;;;;;;;;;5029032;28;20106;-59
2021/07/24 15:30:08;;;;;;;18.27;7.63;;;;;;;;;;5027527;28;20028;-59
2021/07/24 15:32:36;;;;;;;24.98;10.23;;;;;;;;;;5029166;28;20048;-59